sensor_id;sensor_type;location;lat;lon;timestamp;P1;durP1;ratioP1;P2;durP2;ratioP2
46407;SDS011;32110;45.724;21.276;2023-04-15T00:01:58;20.10;;;9.13;;
46407;SDS011;32110;45.724;21.276;2023-04-15T00:04:24;17.90;;;8.85;;
46407;SDS011;32110;45.724;21.276;2023-04-15T00:06:50;19.60;;;9.20;;
46407;SDS011;32110;45.724;21.276;2023-04-15T00:09:17;19.65;;;9.05;;
46407;SDS011;32110;45.724;21.276;2023-04-15T00:11:42;14.98;;;7.93;;
46407;SDS011;32110;45.724;21.276;2023-04-15T00:14:07;12.57;;;7.97;;
46407;SDS011;32110;45.724;21.276;2023-04-15T00:16:33;16.90;;;8.03;;
46407;SDS011;32110;45.724;21.276;2023-04-15T00:18:58;21.27;;;8.77;;
46407;SDS011;32110;45.724;21.276;2023-04-15T00:21:23;22.40;;;9.47;;
46407;SDS011;32110;45.724;21.276;2023-04-15T00:23:49;14.57;;;7.97;;
46407;SDS011;32110;45.724;21.276;2023-04-15T00:26:16;13.02;;;7.50;;
46407;SDS011;32110;45.724;21.276;2023-04-15T00:28:43;14.88;;;7.93;;
46407;SDS011;32110;45.724;21.276;2023-04-15T00:31:08;12.20;;;7.40;;
46407;SDS011;32110;45.724;21.276;2023-04-15T00:33:34;17.30;;;7.80;;
46407;SDS011;32110;45.724;21.276;2023-04-15T00:36:00;12.82;;;7.85;;
46407;SDS011;32110;45.724;21.276;2023-04-15T00:38:26;10.07;;;7.05;;
46407;SDS011;32110;45.724;21.276;2023-04-15T00:40:52;8.63;;;6.20;;
46407;SDS011;32110;45.724;21.276;2023-04-15T00:43:17;9.32;;;5.65;;
46407;SDS011;32110;45.724;21.276;2023-04-15T00:45:43;9.02;;;5.45;;
46407;SDS011;32110;45.724;21.276;2023-04-15T00:48:08;10.52;;;5.50;;
46407;SDS011;32110;45.724;21.276;2023-04-15T00:50:34;7.70;;;4.90;;
46407;SDS011;32110;45.724;21.276;2023-04-15T00:52:59;8.07;;;5.43;;
46407;SDS011;32110;45.724;21.276;2023-04-15T00:55:25;7.30;;;5.28;;
46407;SDS011;32110;45.724;21.276;2023-04-15T00:57:50;6.85;;;4.70;;
46407;SDS011;32110;45.724;21.276;2023-04-15T01:00:16;7.78;;;4.93;;
46407;SDS011;32110;45.724;21.276;2023-04-15T01:02:42;9.35;;;5.20;;
46407;SDS011;32110;45.724;21.276;2023-04-15T01:05:07;8.13;;;4.97;;
46407;SDS011;32110;45.724;21.276;2023-04-15T01:07:33;8.88;;;5.47;;
46407;SDS011;32110;45.724;21.276;2023-04-15T01:09:58;19.00;;;8.63;;
46407;SDS011;32110;45.724;21.276;2023-04-15T01:12:25;20.85;;;9.30;;
46407;SDS011;32110;45.724;21.276;2023-04-15T01:14:50;10.88;;;6.70;;
46407;SDS011;32110;45.724;21.276;2023-04-15T01:17:16;10.30;;;6.05;;
46407;SDS011;32110;45.724;21.276;2023-04-15T01:19:41;13.55;;;6.68;;
46407;SDS011;32110;45.724;21.276;2023-04-15T01:22:06;15.30;;;7.27;;
46407;SDS011;32110;45.724;21.276;2023-04-15T01:24:32;15.00;;;7.25;;
46407;SDS011;32110;45.724;21.276;2023-04-15T01:26:58;11.15;;;7.07;;
46407;SDS011;32110;45.724;21.276;2023-04-15T01:29:23;11.60;;;6.47;;
46407;SDS011;32110;45.724;21.276;2023-04-15T01:31:52;11.80;;;6.20;;
46407;SDS011;32110;45.724;21.276;2023-04-15T01:34:17;10.82;;;6.65;;
46407;SDS011;32110;45.724;21.276;2023-04-15T01:36:43;12.55;;;6.40;;
46407;SDS011;32110;45.724;21.276;2023-04-15T01:39:08;15.13;;;7.45;;
46407;SDS011;32110;45.724;21.276;2023-04-15T01:41:34;10.88;;;6.68;;
46407;SDS011;32110;45.724;21.276;2023-04-15T01:43:59;8.95;;;6.20;;
46407;SDS011;32110;45.724;21.276;2023-04-15T01:46:25;10.60;;;6.20;;
46407;SDS011;32110;45.724;21.276;2023-04-15T01:48:50;11.40;;;6.30;;
46407;SDS011;32110;45.724;21.276;2023-04-15T01:51:16;11.33;;;6.40;;
46407;SDS011;32110;45.724;21.276;2023-04-15T01:53:41;11.23;;;6.45;;
46407;SDS011;32110;45.724;21.276;2023-04-15T01:56:06;12.23;;;5.17;;
46407;SDS011;32110;45.724;21.276;2023-04-15T01:58:32;8.52;;;4.45;;
46407;SDS011;32110;45.724;21.276;2023-04-15T02:00:57;9.13;;;4.10;;
46407;SDS011;32110;45.724;21.276;2023-04-15T02:03:23;6.10;;;3.70;;
46407;SDS011;32110;45.724;21.276;2023-04-15T02:05:48;6.88;;;4.00;;
46407;SDS011;32110;45.724;21.276;2023-04-15T02:08:15;6.97;;;3.75;;
46407;SDS011;32110;45.724;21.276;2023-04-15T02:10:40;5.85;;;3.17;;
46407;SDS011;32110;45.724;21.276;2023-04-15T02:13:05;4.18;;;2.90;;
46407;SDS011;32110;45.724;21.276;2023-04-15T02:15:31;4.88;;;2.67;;
46407;SDS011;32110;45.724;21.276;2023-04-15T02:17:57;5.22;;;2.70;;
46407;SDS011;32110;45.724;21.276;2023-04-15T02:20:24;5.50;;;2.80;;
46407;SDS011;32110;45.724;21.276;2023-04-15T02:22:50;4.10;;;2.95;;
46407;SDS011;32110;45.724;21.276;2023-04-15T02:25:16;4.50;;;2.58;;
46407;SDS011;32110;45.724;21.276;2023-04-15T02:27:41;4.70;;;2.88;;
46407;SDS011;32110;45.724;21.276;2023-04-15T02:30:07;5.88;;;2.78;;
46407;SDS011;32110;45.724;21.276;2023-04-15T02:32:33;4.28;;;2.85;;
46407;SDS011;32110;45.724;21.276;2023-04-15T02:35:02;4.60;;;2.67;;
46407;SDS011;32110;45.724;21.276;2023-04-15T02:37:28;5.40;;;2.80;;
46407;SDS011;32110;45.724;21.276;2023-04-15T02:39:54;3.72;;;2.78;;
46407;SDS011;32110;45.724;21.276;2023-04-15T02:42:20;4.55;;;3.28;;
46407;SDS011;32110;45.724;21.276;2023-04-15T02:44:45;7.47;;;2.60;;
46407;SDS011;32110;45.724;21.276;2023-04-15T02:47:11;3.80;;;2.42;;
46407;SDS011;32110;45.724;21.276;2023-04-15T02:49:36;8.85;;;3.20;;
46407;SDS011;32110;45.724;21.276;2023-04-15T02:52:01;4.45;;;2.90;;
46407;SDS011;32110;45.724;21.276;2023-04-15T02:54:27;5.43;;;3.00;;
46407;SDS011;32110;45.724;21.276;2023-04-15T02:56:52;4.70;;;2.97;;
46407;SDS011;32110;45.724;21.276;2023-04-15T02:59:19;4.22;;;2.60;;
46407;SDS011;32110;45.724;21.276;2023-04-15T03:01:45;4.57;;;2.90;;
46407;SDS011;32110;45.724;21.276;2023-04-15T03:04:10;4.70;;;2.95;;
46407;SDS011;32110;45.724;21.276;2023-04-15T03:06:35;5.50;;;2.50;;
46407;SDS011;32110;45.724;21.276;2023-04-15T03:09:01;6.03;;;2.80;;
46407;SDS011;32110;45.724;21.276;2023-04-15T03:11:27;6.40;;;2.72;;
46407;SDS011;32110;45.724;21.276;2023-04-15T03:13:52;3.88;;;2.55;;
46407;SDS011;32110;45.724;21.276;2023-04-15T03:16:17;4.72;;;2.58;;
46407;SDS011;32110;45.724;21.276;2023-04-15T03:18:43;3.33;;;2.07;;
46407;SDS011;32110;45.724;21.276;2023-04-15T03:21:08;4.63;;;2.50;;
46407;SDS011;32110;45.724;21.276;2023-04-15T03:23:33;3.67;;;2.30;;
46407;SDS011;32110;45.724;21.276;2023-04-15T03:26:02;3.83;;;2.00;;
46407;SDS011;32110;45.724;21.276;2023-04-15T03:28:27;3.03;;;1.90;;
46407;SDS011;32110;45.724;21.276;2023-04-15T03:30:54;6.10;;;2.03;;
46407;SDS011;32110;45.724;21.276;2023-04-15T03:33:19;3.80;;;2.25;;
46407;SDS011;32110;45.724;21.276;2023-04-15T03:35:44;3.20;;;1.90;;
46407;SDS011;32110;45.724;21.276;2023-04-15T03:38:10;2.97;;;1.90;;
46407;SDS011;32110;45.724;21.276;2023-04-15T03:40:35;2.30;;;1.88;;
46407;SDS011;32110;45.724;21.276;2023-04-15T03:43:01;3.37;;;1.60;;
46407;SDS011;32110;45.724;21.276;2023-04-15T03:45:26;4.93;;;1.67;;
46407;SDS011;32110;45.724;21.276;2023-04-15T03:47:51;2.92;;;1.80;;
46407;SDS011;32110;45.724;21.276;2023-04-15T03:50:16;2.63;;;1.83;;
46407;SDS011;32110;45.724;21.276;2023-04-15T03:52:43;5.53;;;2.10;;
46407;SDS011;32110;45.724;21.276;2023-04-15T03:55:08;3.78;;;1.90;;
46407;SDS011;32110;45.724;21.276;2023-04-15T03:57:33;4.13;;;2.40;;
46407;SDS011;32110;45.724;21.276;2023-04-15T04:00:03;7.15;;;2.40;;
46407;SDS011;32110;45.724;21.276;2023-04-15T04:02:28;4.85;;;2.30;;
46407;SDS011;32110;45.724;21.276;2023-04-15T04:04:54;4.17;;;2.43;;
46407;SDS011;32110;45.724;21.276;2023-04-15T04:07:19;7.73;;;2.40;;
46407;SDS011;32110;45.724;21.276;2023-04-15T04:09:44;3.25;;;2.28;;
46407;SDS011;32110;45.724;21.276;2023-04-15T04:12:10;6.15;;;2.55;;
46407;SDS011;32110;45.724;21.276;2023-04-15T04:14:35;6.20;;;3.40;;
46407;SDS011;32110;45.724;21.276;2023-04-15T04:17:00;4.77;;;2.90;;
46407;SDS011;32110;45.724;21.276;2023-04-15T04:19:26;5.40;;;3.17;;
46407;SDS011;32110;45.724;21.276;2023-04-15T04:21:51;5.90;;;2.95;;
46407;SDS011;32110;45.724;21.276;2023-04-15T04:24:16;5.13;;;3.15;;
46407;SDS011;32110;45.724;21.276;2023-04-15T04:26:42;7.70;;;3.17;;
46407;SDS011;32110;45.724;21.276;2023-04-15T04:29:07;5.63;;;3.37;;
46407;SDS011;32110;45.724;21.276;2023-04-15T04:31:32;4.93;;;2.83;;
46407;SDS011;32110;45.724;21.276;2023-04-15T04:33:57;5.40;;;3.00;;
46407;SDS011;32110;45.724;21.276;2023-04-15T04:36:22;5.40;;;2.70;;
46407;SDS011;32110;45.724;21.276;2023-04-15T04:38:48;4.20;;;2.60;;
46407;SDS011;32110;45.724;21.276;2023-04-15T04:41:13;4.83;;;2.20;;
46407;SDS011;32110;45.724;21.276;2023-04-15T04:43:38;6.28;;;2.90;;
46407;SDS011;32110;45.724;21.276;2023-04-15T04:46:04;6.80;;;2.60;;
46407;SDS011;32110;45.724;21.276;2023-04-15T04:48:29;6.13;;;2.50;;
46407;SDS011;32110;45.724;21.276;2023-04-15T04:50:54;5.30;;;2.50;;
46407;SDS011;32110;45.724;21.276;2023-04-15T04:53:20;7.87;;;2.60;;
46407;SDS011;32110;45.724;21.276;2023-04-15T04:57:59;4.38;;;2.25;;
46407;SDS011;32110;45.724;21.276;2023-04-15T05:00:26;6.80;;;2.70;;
46407;SDS011;32110;45.724;21.276;2023-04-15T05:02:51;5.03;;;2.72;;
46407;SDS011;32110;45.724;21.276;2023-04-15T05:05:16;6.67;;;2.80;;
46407;SDS011;32110;45.724;21.276;2023-04-15T05:07:41;6.87;;;2.70;;
46407;SDS011;32110;45.724;21.276;2023-04-15T05:10:07;7.60;;;2.65;;
46407;SDS011;32110;45.724;21.276;2023-04-15T05:12:32;4.53;;;2.92;;
46407;SDS011;32110;45.724;21.276;2023-04-15T05:14:58;5.38;;;2.50;;
46407;SDS011;32110;45.724;21.276;2023-04-15T05:17:23;5.50;;;2.80;;
46407;SDS011;32110;45.724;21.276;2023-04-15T05:19:48;6.13;;;2.65;;
46407;SDS011;32110;45.724;21.276;2023-04-15T05:22:14;4.82;;;3.00;;
46407;SDS011;32110;45.724;21.276;2023-04-15T05:24:39;6.90;;;3.15;;
46407;SDS011;32110;45.724;21.276;2023-04-15T05:27:05;5.55;;;3.08;;
46407;SDS011;32110;45.724;21.276;2023-04-15T05:29:32;6.00;;;3.15;;
46407;SDS011;32110;45.724;21.276;2023-04-15T05:31:58;6.15;;;2.80;;
46407;SDS011;32110;45.724;21.276;2023-04-15T05:34:23;8.30;;;3.10;;
46407;SDS011;32110;45.724;21.276;2023-04-15T05:36:49;5.15;;;2.70;;
46407;SDS011;32110;45.724;21.276;2023-04-15T05:39:14;7.43;;;3.28;;
46407;SDS011;32110;45.724;21.276;2023-04-15T05:41:40;5.75;;;2.55;;
46407;SDS011;32110;45.724;21.276;2023-04-15T05:44:05;4.25;;;2.92;;
46407;SDS011;32110;45.724;21.276;2023-04-15T05:46:31;5.13;;;2.35;;
46407;SDS011;32110;45.724;21.276;2023-04-15T05:48:56;4.82;;;2.35;;
46407;SDS011;32110;45.724;21.276;2023-04-15T05:51:22;7.30;;;3.03;;
46407;SDS011;32110;45.724;21.276;2023-04-15T05:53:47;5.57;;;2.90;;
46407;SDS011;32110;45.724;21.276;2023-04-15T05:56:12;4.53;;;2.60;;
46407;SDS011;32110;45.724;21.276;2023-04-15T05:58:38;4.32;;;2.45;;
46407;SDS011;32110;45.724;21.276;2023-04-15T06:01:03;7.03;;;3.00;;
46407;SDS011;32110;45.724;21.276;2023-04-15T06:03:29;9.05;;;3.53;;
46407;SDS011;32110;45.724;21.276;2023-04-15T06:05:55;6.82;;;2.78;;
46407;SDS011;32110;45.724;21.276;2023-04-15T06:08:20;5.00;;;2.45;;
46407;SDS011;32110;45.724;21.276;2023-04-15T06:10:46;5.85;;;2.40;;
46407;SDS011;32110;45.724;21.276;2023-04-15T06:13:11;4.82;;;2.17;;
46407;SDS011;32110;45.724;21.276;2023-04-15T06:15:37;6.00;;;2.30;;
46407;SDS011;32110;45.724;21.276;2023-04-15T06:18:02;5.15;;;2.15;;
46407;SDS011;32110;45.724;21.276;2023-04-15T06:20:28;6.47;;;2.45;;
46407;SDS011;32110;45.724;21.276;2023-04-15T06:22:53;4.55;;;2.30;;
46407;SDS011;32110;45.724;21.276;2023-04-15T06:25:18;4.20;;;1.95;;
46407;SDS011;32110;45.724;21.276;2023-04-15T06:27:44;4.65;;;2.10;;
46407;SDS011;32110;45.724;21.276;2023-04-15T06:30:09;4.88;;;2.20;;
46407;SDS011;32110;45.724;21.276;2023-04-15T06:32:35;5.45;;;1.92;;
46407;SDS011;32110;45.724;21.276;2023-04-15T06:35:00;4.97;;;1.90;;
46407;SDS011;32110;45.724;21.276;2023-04-15T06:37:26;5.68;;;2.03;;
46407;SDS011;32110;45.724;21.276;2023-04-15T06:39:51;6.15;;;2.00;;
46407;SDS011;32110;45.724;21.276;2023-04-15T06:42:17;4.97;;;2.22;;
46407;SDS011;32110;45.724;21.276;2023-04-15T06:44:42;5.00;;;2.30;;
46407;SDS011;32110;45.724;21.276;2023-04-15T06:47:08;4.07;;;1.98;;
46407;SDS011;32110;45.724;21.276;2023-04-15T06:49:33;3.83;;;2.13;;
46407;SDS011;32110;45.724;21.276;2023-04-15T06:51:59;4.05;;;1.85;;
46407;SDS011;32110;45.724;21.276;2023-04-15T06:54:25;2.88;;;1.90;;
46407;SDS011;32110;45.724;21.276;2023-04-15T06:56:51;4.32;;;1.88;;
46407;SDS011;32110;45.724;21.276;2023-04-15T06:59:16;2.85;;;1.50;;
46407;SDS011;32110;45.724;21.276;2023-04-15T07:01:42;3.30;;;1.75;;
46407;SDS011;32110;45.724;21.276;2023-04-15T07:04:07;4.85;;;2.13;;
46407;SDS011;32110;45.724;21.276;2023-04-15T07:06:32;3.67;;;1.60;;
46407;SDS011;32110;45.724;21.276;2023-04-15T07:08:58;5.27;;;1.57;;
46407;SDS011;32110;45.724;21.276;2023-04-15T07:11:24;3.13;;;1.50;;
46407;SDS011;32110;45.724;21.276;2023-04-15T07:13:49;4.93;;;2.15;;
46407;SDS011;32110;45.724;21.276;2023-04-15T07:16:15;4.43;;;1.63;;
46407;SDS011;32110;45.724;21.276;2023-04-15T07:18:40;2.67;;;1.33;;
46407;SDS011;32110;45.724;21.276;2023-04-15T07:21:05;3.97;;;2.30;;
46407;SDS011;32110;45.724;21.276;2023-04-15T07:23:30;3.43;;;1.47;;
46407;SDS011;32110;45.724;21.276;2023-04-15T07:25:56;1.73;;;1.17;;
46407;SDS011;32110;45.724;21.276;2023-04-15T07:28:21;3.65;;;1.42;;
46407;SDS011;32110;45.724;21.276;2023-04-15T07:30:47;1.80;;;1.20;;
46407;SDS011;32110;45.724;21.276;2023-04-15T07:33:12;4.70;;;1.70;;
46407;SDS011;32110;45.724;21.276;2023-04-15T07:35:37;2.17;;;1.40;;
46407;SDS011;32110;45.724;21.276;2023-04-15T07:38:03;1.77;;;1.10;;
46407;SDS011;32110;45.724;21.276;2023-04-15T07:40:28;2.67;;;1.30;;
46407;SDS011;32110;45.724;21.276;2023-04-15T07:42:54;1.40;;;1.10;;
46407;SDS011;32110;45.724;21.276;2023-04-15T07:45:20;3.22;;;1.30;;
46407;SDS011;32110;45.724;21.276;2023-04-15T07:47:45;3.25;;;1.30;;
46407;SDS011;32110;45.724;21.276;2023-04-15T07:50:10;2.50;;;1.30;;
46407;SDS011;32110;45.724;21.276;2023-04-15T07:52:36;2.00;;;1.00;;
46407;SDS011;32110;45.724;21.276;2023-04-15T07:55:06;6.53;;;1.20;;
46407;SDS011;32110;45.724;21.276;2023-04-15T07:57:35;3.30;;;1.30;;
46407;SDS011;32110;45.724;21.276;2023-04-15T08:00:01;3.28;;;1.02;;
46407;SDS011;32110;45.724;21.276;2023-04-15T08:02:28;2.83;;;1.20;;
46407;SDS011;32110;45.724;21.276;2023-04-15T08:04:53;3.85;;;1.30;;
46407;SDS011;32110;45.724;21.276;2023-04-15T08:07:18;6.73;;;1.70;;
46407;SDS011;32110;45.724;21.276;2023-04-15T08:09:44;2.70;;;1.33;;
46407;SDS011;32110;45.724;21.276;2023-04-15T08:12:09;4.32;;;1.30;;
46407;SDS011;32110;45.724;21.276;2023-04-15T08:14:37;4.30;;;1.13;;
46407;SDS011;32110;45.724;21.276;2023-04-15T08:17:02;2.30;;;1.17;;
46407;SDS011;32110;45.724;21.276;2023-04-15T08:19:28;3.40;;;1.20;;
46407;SDS011;32110;45.724;21.276;2023-04-15T08:21:53;2.38;;;1.20;;
46407;SDS011;32110;45.724;21.276;2023-04-15T08:24:19;2.15;;;1.17;;
46407;SDS011;32110;45.724;21.276;2023-04-15T08:26:44;1.60;;;1.00;;
46407;SDS011;32110;45.724;21.276;2023-04-15T08:29:11;2.97;;;1.15;;
46407;SDS011;32110;45.724;21.276;2023-04-15T08:31:36;3.35;;;1.27;;
46407;SDS011;32110;45.724;21.276;2023-04-15T08:34:01;2.73;;;1.40;;
46407;SDS011;32110;45.724;21.276;2023-04-15T08:36:27;5.57;;;1.25;;
46407;SDS011;32110;45.724;21.276;2023-04-15T08:38:52;1.73;;;1.00;;
46407;SDS011;32110;45.724;21.276;2023-04-15T08:41:21;2.30;;;0.97;;
46407;SDS011;32110;45.724;21.276;2023-04-15T08:43:55;2.80;;;1.00;;
46407;SDS011;32110;45.724;21.276;2023-04-15T08:46:21;3.97;;;1.02;;
46407;SDS011;32110;45.724;21.276;2023-04-15T08:48:47;2.05;;;1.02;;
46407;SDS011;32110;45.724;21.276;2023-04-15T08:51:13;2.15;;;0.98;;
46407;SDS011;32110;45.724;21.276;2023-04-15T08:53:40;2.13;;;0.80;;
46407;SDS011;32110;45.724;21.276;2023-04-15T08:56:06;2.30;;;1.00;;
46407;SDS011;32110;45.724;21.276;2023-04-15T08:58:34;1.90;;;0.80;;
46407;SDS011;32110;45.724;21.276;2023-04-15T09:01:00;1.90;;;0.90;;
46407;SDS011;32110;45.724;21.276;2023-04-15T09:03:25;3.50;;;1.00;;
46407;SDS011;32110;45.724;21.276;2023-04-15T09:05:51;1.80;;;1.00;;
46407;SDS011;32110;45.724;21.276;2023-04-15T09:08:17;2.72;;;0.90;;
46407;SDS011;32110;45.724;21.276;2023-04-15T09:10:42;1.27;;;0.70;;
46407;SDS011;32110;45.724;21.276;2023-04-15T09:13:07;1.85;;;1.13;;
46407;SDS011;32110;45.724;21.276;2023-04-15T09:15:33;1.98;;;1.02;;
46407;SDS011;32110;45.724;21.276;2023-04-15T09:18:01;2.38;;;1.00;;
46407;SDS011;32110;45.724;21.276;2023-04-15T09:20:26;1.40;;;0.90;;
46407;SDS011;32110;45.724;21.276;2023-04-15T09:22:52;3.67;;;0.90;;
46407;SDS011;32110;45.724;21.276;2023-04-15T09:27:53;7.15;;;3.55;;
46407;SDS011;32110;45.724;21.276;2023-04-15T09:30:18;3.90;;;1.45;;
46407;SDS011;32110;45.724;21.276;2023-04-15T09:32:50;6.15;;;3.33;;
46407;SDS011;32110;45.724;21.276;2023-04-15T09:35:16;3.83;;;1.73;;
46407;SDS011;32110;45.724;21.276;2023-04-15T09:37:41;3.20;;;1.70;;
46407;SDS011;32110;45.724;21.276;2023-04-15T09:40:07;2.53;;;0.90;;
46407;SDS011;32110;45.724;21.276;2023-04-15T09:42:34;1.63;;;0.90;;
46407;SDS011;32110;45.724;21.276;2023-04-15T09:45:11;1.15;;;0.68;;
46407;SDS011;32110;45.724;21.276;2023-04-15T09:47:36;1.70;;;0.82;;
46407;SDS011;32110;45.724;21.276;2023-04-15T09:50:02;1.30;;;0.83;;
46407;SDS011;32110;45.724;21.276;2023-04-15T09:52:27;1.05;;;0.60;;
46407;SDS011;32110;45.724;21.276;2023-04-15T09:54:53;2.55;;;0.70;;
46407;SDS011;32110;45.724;21.276;2023-04-15T09:57:21;2.88;;;0.70;;
46407;SDS011;32110;45.724;21.276;2023-04-15T09:59:47;1.50;;;0.80;;
46407;SDS011;32110;45.724;21.276;2023-04-15T10:02:13;2.33;;;0.90;;
46407;SDS011;32110;45.724;21.276;2023-04-15T10:04:39;3.90;;;0.70;;
46407;SDS011;32110;45.724;21.276;2023-04-15T10:07:05;2.33;;;0.77;;
46407;SDS011;32110;45.724;21.276;2023-04-15T10:09:31;1.00;;;0.73;;
46407;SDS011;32110;45.724;21.276;2023-04-15T10:11:58;1.48;;;0.70;;
46407;SDS011;32110;45.724;21.276;2023-04-15T10:14:23;2.08;;;0.77;;
46407;SDS011;32110;45.724;21.276;2023-04-15T10:16:50;2.50;;;1.00;;
46407;SDS011;32110;45.724;21.276;2023-04-15T10:19:17;1.25;;;0.60;;
46407;SDS011;32110;45.724;21.276;2023-04-15T10:21:45;3.05;;;0.93;;
46407;SDS011;32110;45.724;21.276;2023-04-15T10:24:10;1.40;;;0.60;;
46407;SDS011;32110;45.724;21.276;2023-04-15T10:26:36;2.65;;;1.00;;
46407;SDS011;32110;45.724;21.276;2023-04-15T10:29:02;1.25;;;0.70;;
46407;SDS011;32110;45.724;21.276;2023-04-15T10:31:27;2.80;;;0.90;;
46407;SDS011;32110;45.724;21.276;2023-04-15T10:33:53;1.95;;;1.00;;
46407;SDS011;32110;45.724;21.276;2023-04-15T10:36:19;1.60;;;0.70;;
46407;SDS011;32110;45.724;21.276;2023-04-15T10:38:45;2.60;;;0.90;;
46407;SDS011;32110;45.724;21.276;2023-04-15T10:41:11;1.13;;;0.73;;
46407;SDS011;32110;45.724;21.276;2023-04-15T10:46:15;1.70;;;0.93;;
46407;SDS011;32110;45.724;21.276;2023-04-15T10:48:46;3.50;;;0.88;;
46407;SDS011;32110;45.724;21.276;2023-04-15T10:51:13;1.85;;;0.80;;
46407;SDS011;32110;45.724;21.276;2023-04-15T10:53:40;3.53;;;0.90;;
46407;SDS011;32110;45.724;21.276;2023-04-15T10:56:07;2.90;;;0.88;;
46407;SDS011;32110;45.724;21.276;2023-04-15T10:58:41;1.77;;;0.93;;
46407;SDS011;32110;45.724;21.276;2023-04-15T11:01:07;1.95;;;0.70;;
46407;SDS011;32110;45.724;21.276;2023-04-15T11:03:35;1.27;;;0.90;;
46407;SDS011;32110;45.724;21.276;2023-04-15T11:06:01;2.05;;;0.80;;
46407;SDS011;32110;45.724;21.276;2023-04-15T11:14:35;1.40;;;0.77;;
46407;SDS011;32110;45.724;21.276;2023-04-15T11:17:04;1.05;;;0.70;;
46407;SDS011;32110;45.724;21.276;2023-04-15T11:19:38;1.67;;;0.60;;
46407;SDS011;32110;45.724;21.276;2023-04-15T11:22:10;1.52;;;0.73;;
46407;SDS011;32110;45.724;21.276;2023-04-15T11:24:35;2.20;;;0.80;;
46407;SDS011;32110;45.724;21.276;2023-04-15T11:27:01;0.80;;;0.57;;
46407;SDS011;32110;45.724;21.276;2023-04-15T11:29:30;1.88;;;0.70;;
46407;SDS011;32110;45.724;21.276;2023-04-15T11:32:08;1.30;;;0.60;;
46407;SDS011;32110;45.724;21.276;2023-04-15T11:34:33;1.17;;;0.70;;
46407;SDS011;32110;45.724;21.276;2023-04-15T11:37:02;1.15;;;0.70;;
46407;SDS011;32110;45.724;21.276;2023-04-15T11:41:54;0.87;;;0.60;;
46407;SDS011;32110;45.724;21.276;2023-04-15T11:44:20;1.55;;;0.50;;
46407;SDS011;32110;45.724;21.276;2023-04-15T11:46:45;0.67;;;0.57;;
46407;SDS011;32110;45.724;21.276;2023-04-15T11:49:10;2.00;;;0.57;;
46407;SDS011;32110;45.724;21.276;2023-04-15T11:51:35;1.83;;;0.50;;
46407;SDS011;32110;45.724;21.276;2023-04-15T11:54:01;0.47;;;0.30;;
46407;SDS011;32110;45.724;21.276;2023-04-15T11:56:26;3.03;;;0.57;;
46407;SDS011;32110;45.724;21.276;2023-04-15T11:58:57;2.03;;;0.50;;
46407;SDS011;32110;45.724;21.276;2023-04-15T12:01:30;2.30;;;0.60;;
46407;SDS011;32110;45.724;21.276;2023-04-15T12:03:55;0.60;;;0.30;;
46407;SDS011;32110;45.724;21.276;2023-04-15T12:06:23;0.80;;;0.30;;
46407;SDS011;32110;45.724;21.276;2023-04-15T12:11:17;1.00;;;0.50;;
46407;SDS011;32110;45.724;21.276;2023-04-15T12:13:43;2.15;;;0.52;;
46407;SDS011;32110;45.724;21.276;2023-04-15T12:16:08;0.50;;;0.30;;
46407;SDS011;32110;45.724;21.276;2023-04-15T12:18:36;1.77;;;0.73;;
46407;SDS011;32110;45.724;21.276;2023-04-15T12:21:08;2.08;;;0.50;;
46407;SDS011;32110;45.724;21.276;2023-04-15T12:23:36;0.40;;;0.40;;
46407;SDS011;32110;45.724;21.276;2023-04-15T12:26:05;2.38;;;0.60;;
46407;SDS011;32110;45.724;21.276;2023-04-15T12:28:32;0.90;;;0.55;;
46407;SDS011;32110;45.724;21.276;2023-04-15T12:30:59;2.20;;;0.70;;
46407;SDS011;32110;45.724;21.276;2023-04-15T12:33:33;0.77;;;0.60;;
46407;SDS011;32110;45.724;21.276;2023-04-15T12:35:59;1.05;;;0.60;;
46407;SDS011;32110;45.724;21.276;2023-04-15T12:38:24;0.70;;;0.60;;
46407;SDS011;32110;45.724;21.276;2023-04-15T12:40:50;1.90;;;0.50;;
46407;SDS011;32110;45.724;21.276;2023-04-15T12:43:15;2.45;;;0.82;;
46407;SDS011;32110;45.724;21.276;2023-04-15T12:45:41;0.70;;;0.55;;
46407;SDS011;32110;45.724;21.276;2023-04-15T12:48:06;1.90;;;0.63;;
46407;SDS011;32110;45.724;21.276;2023-04-15T12:50:33;1.63;;;0.60;;
46407;SDS011;32110;45.724;21.276;2023-04-15T12:52:59;1.05;;;0.65;;
46407;SDS011;32110;45.724;21.276;2023-04-15T12:55:25;1.00;;;0.60;;
46407;SDS011;32110;45.724;21.276;2023-04-15T12:57:50;1.20;;;0.68;;
46407;SDS011;32110;45.724;21.276;2023-04-15T13:00:16;2.53;;;0.88;;
46407;SDS011;32110;45.724;21.276;2023-04-15T13:02:44;0.93;;;0.60;;
46407;SDS011;32110;45.724;21.276;2023-04-15T13:05:10;1.08;;;0.60;;
46407;SDS011;32110;45.724;21.276;2023-04-15T13:07:35;1.73;;;0.68;;
46407;SDS011;32110;45.724;21.276;2023-04-15T13:10:04;1.07;;;0.40;;
46407;SDS011;32110;45.724;21.276;2023-04-15T13:12:29;1.35;;;0.70;;
46407;SDS011;32110;45.724;21.276;2023-04-15T13:14:55;0.60;;;0.43;;
46407;SDS011;32110;45.724;21.276;2023-04-15T13:17:20;3.20;;;0.90;;
46407;SDS011;32110;45.724;21.276;2023-04-15T13:19:45;2.03;;;0.88;;
46407;SDS011;32110;45.724;21.276;2023-04-15T13:22:11;2.75;;;1.10;;
46407;SDS011;32110;45.724;21.276;2023-04-15T13:24:36;2.70;;;0.95;;
46407;SDS011;32110;45.724;21.276;2023-04-15T13:27:03;1.25;;;0.65;;
46407;SDS011;32110;45.724;21.276;2023-04-15T13:29:28;2.10;;;0.70;;
46407;SDS011;32110;45.724;21.276;2023-04-15T13:31:54;2.77;;;0.87;;
46407;SDS011;32110;45.724;21.276;2023-04-15T13:34:19;1.42;;;0.95;;
46407;SDS011;32110;45.724;21.276;2023-04-15T13:36:45;3.50;;;0.75;;
46407;SDS011;32110;45.724;21.276;2023-04-15T13:39:11;2.03;;;0.60;;
46407;SDS011;32110;45.724;21.276;2023-04-15T13:41:36;0.87;;;0.50;;
46407;SDS011;32110;45.724;21.276;2023-04-15T13:44:02;1.92;;;0.70;;
46407;SDS011;32110;45.724;21.276;2023-04-15T13:46:30;1.00;;;0.60;;
46407;SDS011;32110;45.724;21.276;2023-04-15T13:48:55;1.30;;;0.73;;
46407;SDS011;32110;45.724;21.276;2023-04-15T13:51:20;1.00;;;0.73;;
46407;SDS011;32110;45.724;21.276;2023-04-15T13:53:46;1.10;;;0.73;;
46407;SDS011;32110;45.724;21.276;2023-04-15T13:56:13;1.67;;;0.90;;
46407;SDS011;32110;45.724;21.276;2023-04-15T13:58:39;1.88;;;0.80;;
46407;SDS011;32110;45.724;21.276;2023-04-15T14:01:05;1.90;;;0.80;;
46407;SDS011;32110;45.724;21.276;2023-04-15T14:03:30;1.10;;;0.68;;
46407;SDS011;32110;45.724;21.276;2023-04-15T14:05:55;0.95;;;0.75;;
46407;SDS011;32110;45.724;21.276;2023-04-15T14:08:22;2.28;;;0.70;;
46407;SDS011;32110;45.724;21.276;2023-04-15T14:10:47;1.85;;;0.70;;
46407;SDS011;32110;45.724;21.276;2023-04-15T14:13:13;1.88;;;0.90;;
46407;SDS011;32110;45.724;21.276;2023-04-15T14:15:39;0.77;;;0.65;;
46407;SDS011;32110;45.724;21.276;2023-04-15T14:18:04;3.78;;;1.20;;
46407;SDS011;32110;45.724;21.276;2023-04-15T14:20:30;1.30;;;0.70;;
46407;SDS011;32110;45.724;21.276;2023-04-15T14:22:55;1.38;;;0.63;;
46407;SDS011;32110;45.724;21.276;2023-04-15T14:25:21;2.97;;;0.80;;
46407;SDS011;32110;45.724;21.276;2023-04-15T14:27:46;3.35;;;0.80;;
46407;SDS011;32110;45.724;21.276;2023-04-15T14:30:12;1.83;;;0.93;;
46407;SDS011;32110;45.724;21.276;2023-04-15T14:32:37;2.75;;;0.73;;
46407;SDS011;32110;45.724;21.276;2023-04-15T14:35:02;2.20;;;0.97;;
46407;SDS011;32110;45.724;21.276;2023-04-15T14:37:28;2.50;;;0.82;;
46407;SDS011;32110;45.724;21.276;2023-04-15T14:39:53;1.77;;;0.80;;
46407;SDS011;32110;45.724;21.276;2023-04-15T14:42:18;1.87;;;0.93;;
46407;SDS011;32110;45.724;21.276;2023-04-15T14:44:44;2.88;;;0.73;;